Time;durP1;ratioP1;P1;durP2;ratioP2;P2;SDS_P1;SDS_P2;PMS_P1;PMS_P2;Temp;Humidity;BMP_temperature;BMP_pressure;BME280_temperature;BME280_humidity;BME280_pressure;Samples;Min_cycle;Max_cycle;Signal;HPM_P1;HPM_P2
2021/01/26 00:00:34;;;;;;;14.85;10.75;;;0.70;99.90;;;;;;4845730;29;20416;-80
2021/01/26 00:03:00;;;;;;;12.32;10.77;;;0.80;99.90;;;;;;4833854;29;20440;-83
2021/01/26 00:05:25;;;;;;;13.33;11.60;;;0.70;99.90;;;;;;4855048;29;20410;-81
2021/01/26 00:07:51;;;;;;;13.00;10.48;;;0.80;99.90;;;;;;4844835;29;20431;-80
2021/01/26 00:10:17;;;;;;;13.03;11.00;;;1.00;99.90;;;;;;4846393;29;20465;-82
2021/01/26 00:12:42;;;;;;;13.27;11.23;;;0.80;99.90;;;;;;4835934;29;20917;-82
2021/01/26 00:15:09;;;;;;;16.65;10.82;;;0.80;99.90;;;;;;4838213;29;20514;-84
2021/01/26 00:17:34;;;;;;;11.82;10.00;;;0.80;99.90;;;;;;4839247;29;20435;-79
2021/01/26 00:20:00;;;;;;;13.80;11.05;;;0.80;99.90;;;;;;4844651;29;20510;-80
2021/01/26 00:22:26;;;;;;;12.60;10.50;;;0.90;99.90;;;;;;4814751;29;20428;-81
2021/01/26 00:24:51;;;;;;;12.83;10.03;;;0.80;99.90;;;;;;4830693;29;20474;-81
2021/01/26 00:27:17;;;;;;;15.00;10.77;;;0.80;99.90;;;;;;4848324;29;20428;-79
2021/01/26 00:29:43;;;;;;;14.13;11.20;;;0.80;99.90;;;;;;4837486;29;20775;-81
2021/01/26 00:32:08;;;;;;;13.87;10.77;;;0.80;99.90;;;;;;4862444;29;20414;-82
2021/01/26 00:34:34;;;;;;;12.95;10.90;;;0.80;99.90;;;;;;4825202;29;20412;-80
2021/01/26 00:37:00;;;;;;;14.37;11.00;;;0.70;99.90;;;;;;4841172;29;20413;-80
2021/01/26 00:39:25;;;;;;;15.23;10.90;;;0.80;99.90;;;;;;4878218;29;20480;-80
2021/01/26 00:41:51;;;;;;;14.73;11.00;;;0.80;99.90;;;;;;4831544;29;20426;-81
2021/01/26 00:44:17;;;;;;;10.93;9.60;;;0.80;99.90;;;;;;4831873;29;20410;-81
2021/01/26 00:46:43;;;;;;;15.30;10.47;;;0.80;99.90;;;;;;4831247;29;20414;-80
2021/01/26 00:49:08;;;;;;;13.33;10.07;;;0.80;99.90;;;;;;4829918;29;20407;-83
2021/01/26 00:51:34;;;;;;;13.13;10.70;;;0.70;99.90;;;;;;4826762;29;20504;-82
2021/01/26 00:54:00;;;;;;;12.82;10.15;;;0.70;99.90;;;;;;4813728;29;20422;-80
2021/01/26 00:56:30;;;;;;;14.00;11.07;;;0.70;99.90;;;;;;4845209;29;20500;-84
2021/01/26 00:58:57;;;;;;;16.00;11.60;;;0.70;99.90;;;;;;4870819;29;20415;-84
2021/01/26 01:01:22;;;;;;;16.05;11.02;;;0.90;99.90;;;;;;4833578;29;20432;-87
2021/01/26 01:03:49;;;;;;;14.30;10.52;;;0.80;99.90;;;;;;4839293;29;20412;-88
2021/01/26 01:06:16;;;;;;;13.32;10.93;;;0.90;99.90;;;;;;4836574;29;20419;-82
2021/01/26 01:08:42;;;;;;;13.48;11.07;;;0.70;99.90;;;;;;4837695;29;20432;-89
2021/01/26 01:11:09;;;;;;;13.35;10.98;;;0.70;99.90;;;;;;4840802;29;20412;-91
2021/01/26 01:13:35;;;;;;;12.27;10.40;;;0.80;99.90;;;;;;4839743;29;20404;-88
2021/01/26 01:16:01;;;;;;;13.20;10.30;;;0.60;99.90;;;;;;4838565;29;20412;-90
2021/01/26 01:18:27;;;;;;;12.45;10.52;;;0.70;99.90;;;;;;4843049;29;20468;-84
2021/01/26 01:20:54;;;;;;;15.95;10.77;;;0.70;99.90;;;;;;4852559;29;20415;-82
2021/01/26 01:23:20;;;;;;;12.63;9.90;;;0.70;99.90;;;;;;4828693;29;20917;-86
2021/01/26 01:25:46;;;;;;;13.55;10.63;;;0.80;99.90;;;;;;4845482;29;20940;-88
2021/01/26 01:28:12;;;;;;;13.83;9.83;;;0.70;99.90;;;;;;4879749;29;20796;-87
2021/01/26 01:30:37;;;;;;;13.83;10.33;;;0.70;99.90;;;;;;4847768;29;20468;-85
2021/01/26 01:33:04;;;;;;;15.13;10.90;;;0.70;99.90;;;;;;4888051;29;20408;-88
2021/01/26 01:35:30;;;;;;;11.90;10.63;;;0.70;99.90;;;;;;4888634;29;20409;-90
2021/01/26 01:37:56;;;;;;;12.50;10.37;;;0.80;99.90;;;;;;4884750;29;20415;-90
2021/01/26 01:40:25;;;;;;;15.93;10.77;;;0.80;99.90;;;;;;4884543;29;20404;-87
2021/01/26 01:42:51;;;;;;;15.80;11.10;;;0.80;99.90;;;;;;4882738;29;20448;-86
2021/01/26 01:45:17;;;;;;;11.50;9.87;;;0.60;99.90;;;;;;4868675;29;20470;-86
2021/01/26 01:47:49;;;;;;;14.15;10.27;;;0.60;99.90;;;;;;4833603;29;20474;-85
2021/01/26 01:50:18;;;;;;;15.07;10.70;;;0.60;99.90;;;;;;4841869;29;20595;-85
2021/01/26 01:52:44;;;;;;;15.63;11.15;;;0.60;99.90;;;;;;4839930;29;20648;-90
2021/01/26 01:55:15;;;;;;;13.80;10.18;;;0.60;99.90;;;;;;4833068;29;20429;-86
2021/01/26 01:57:46;;;;;;;13.07;9.88;;;0.60;99.90;;;;;;4817602;29;20410;-90
2021/01/26 02:00:13;;;;;;;14.10;10.93;;;0.60;99.90;;;;;;4845198;29;20803;-88
2021/01/26 02:02:42;;;;;;;15.65;11.13;;;0.60;99.90;;;;;;4861300;29;20424;-85
2021/01/26 02:05:09;;;;;;;13.85;10.48;;;0.60;99.90;;;;;;4853753;29;20411;-85
2021/01/26 02:07:35;;;;;;;12.93;10.32;;;0.60;99.90;;;;;;4843470;29;20404;-89
2021/01/26 02:10:00;;;;;;;12.33;10.33;;;0.60;99.90;;;;;;4866972;29;20489;-82
2021/01/26 02:12:26;;;;;;;13.67;10.77;;;0.60;99.90;;;;;;4852677;29;20405;-85
2021/01/26 02:14:54;;;;;;;16.98;10.77;;;0.60;99.90;;;;;;4835077;29;20433;-88
2021/01/26 02:17:34;;;;;;;11.90;10.32;;;0.60;99.90;;;;;;4848049;29;20403;-82
2021/01/26 02:20:22;;;;;;;11.73;10.43;;;0.60;99.90;;;;;;4860402;29;20408;-83
2021/01/26 02:23:24;;;;;;;12.23;10.53;;;0.50;99.90;;;;;;4858642;29;20419;-86
2021/01/26 02:26:08;;;;;;;13.05;9.95;;;0.50;99.90;;;;;;4865049;29;20404;-88
2021/01/26 02:28:51;;;;;;;11.85;10.13;;;0.50;99.90;;;;;;4848153;29;20416;-82
2021/01/26 02:31:31;;;;;;;14.48;10.65;;;0.60;99.90;;;;;;4842280;29;20400;-84
2021/01/26 02:34:34;;;;;;;13.93;10.38;;;0.60;99.90;;;;;;4841840;29;20404;-85
2021/01/26 02:37:18;;;;;;;14.82;10.77;;;0.60;99.90;;;;;;4839070;29;20766;-82
2021/01/26 02:39:57;;;;;;;12.68;10.25;;;0.50;99.90;;;;;;4840672;29;20416;-86
2021/01/26 02:42:39;;;;;;;11.82;9.75;;;0.50;99.90;;;;;;4834208;29;20419;-87
2021/01/26 02:45:31;;;;;;;11.40;10.18;;;0.50;99.90;;;;;;4847114;29;20420;-87
2021/01/26 02:48:18;;;;;;;14.77;10.45;;;0.50;99.90;;;;;;4832325;29;20412;-86
2021/01/26 02:51:13;;;;;;;15.07;10.27;;;0.50;99.90;;;;;;4844505;29;21011;-86
2021/01/26 02:54:07;;;;;;;14.75;10.32;;;0.50;99.90;;;;;;4828420;29;20512;-84
2021/01/26 02:56:41;;;;;;;12.30;10.48;;;0.50;99.90;;;;;;4843340;29;20982;-88
2021/01/26 02:59:24;;;;;;;12.38;10.52;;;0.50;99.90;;;;;;4828891;29;20973;-82
2021/01/26 03:02:29;;;;;;;10.57;9.43;;;0.50;99.90;;;;;;4842527;29;20425;-87
2021/01/26 03:05:08;;;;;;;13.02;10.15;;;0.50;99.90;;;;;;4824940;29;20483;-88
2021/01/26 03:07:36;;;;;;;12.02;10.30;;;0.50;99.90;;;;;;4822808;29;20433;-86
2021/01/26 03:10:07;;;;;;;12.93;9.75;;;0.50;99.90;;;;;;4801768;29;20420;-87
2021/01/26 03:12:38;;;;;;;11.85;10.30;;;0.50;99.90;;;;;;4809581;29;20410;-83
2021/01/26 03:15:18;;;;;;;12.73;9.65;;;0.50;99.90;;;;;;4860960;29;20422;-85
2021/01/26 03:17:45;;;;;;;10.87;9.70;;;0.50;99.90;;;;;;4846549;29;20567;-85
2021/01/26 03:20:26;;;;;;;12.68;10.02;;;0.50;99.90;;;;;;4855624;29;20423;-85
2021/01/26 03:22:53;;;;;;;11.35;9.95;;;0.50;99.90;;;;;;4849400;29;20426;-84
2021/01/26 03:25:20;;;;;;;14.52;10.25;;;0.50;99.90;;;;;;4833559;29;20412;-87
2021/01/26 03:27:46;;;;;;;13.32;10.50;;;0.50;99.90;;;;;;4851721;29;20969;-82
2021/01/26 03:30:14;;;;;;;13.07;10.43;;;0.40;99.90;;;;;;4845435;29;20404;-89
2021/01/26 03:32:43;;;;;;;11.00;9.88;;;0.40;99.90;;;;;;4833199;29;20406;-86
2021/01/26 03:35:09;;;;;;;11.73;9.82;;;0.50;99.90;;;;;;4856038;29;20435;-84
2021/01/26 03:37:35;;;;;;;12.85;10.15;;;0.50;99.90;;;;;;4854908;29;20412;-86
2021/01/26 03:40:01;;;;;;;11.77;9.48;;;0.50;99.90;;;;;;4828911;29;20461;-90
2021/01/26 03:42:26;;;;;;;11.10;9.52;;;0.40;99.90;;;;;;4833805;29;20524;-82
2021/01/26 03:44:52;;;;;;;16.13;10.20;;;0.40;99.90;;;;;;4848515;29;20412;-84
2021/01/26 03:47:25;;;;;;;14.70;9.67;;;0.40;99.90;;;;;;4831686;29;20439;-84
2021/01/26 03:50:09;;;;;;;13.23;10.20;;;0.40;99.90;;;;;;4846877;29;20424;-80
2021/01/26 03:53:05;;;;;;;12.80;9.80;;;0.40;99.90;;;;;;4856421;29;20414;-80
2021/01/26 03:55:53;;;;;;;10.30;9.02;;;0.40;99.90;;;;;;4837548;29;20426;-85
2021/01/26 03:58:43;;;;;;;11.02;9.15;;;0.40;99.90;;;;;;4846388;29;20827;-86
2021/01/26 04:01:30;;;;;;;11.27;9.23;;;0.40;99.90;;;;;;4848709;29;20433;-90
2021/01/26 04:03:56;;;;;;;12.20;10.18;;;0.40;99.90;;;;;;4852105;29;20445;-85
2021/01/26 04:06:40;;;;;;;11.88;9.73;;;0.40;99.90;;;;;;4881429;29;20456;-84
2021/01/26 04:09:10;;;;;;;13.15;9.50;;;0.40;99.90;;;;;;4838605;29;20410;-83
2021/01/26 04:11:41;;;;;;;10.55;8.70;;;0.40;99.90;;;;;;4842630;29;20515;-81
2021/01/26 04:14:15;;;;;;;11.27;8.68;;;0.40;99.90;;;;;;4848951;29;20491;-82
2021/01/26 04:16:44;;;;;;;13.07;9.43;;;0.40;99.90;;;;;;4848232;29;20533;-85
2021/01/26 04:19:13;;;;;;;11.95;9.50;;;0.40;99.90;;;;;;4842685;29;22253;-91
2021/01/26 04:21:39;;;;;;;10.65;9.25;;;0.40;99.90;;;;;;4843090;29;20493;-87
2021/01/26 04:24:06;;;;;;;11.48;9.60;;;0.40;99.90;;;;;;4842806;29;22950;-87
2021/01/26 04:26:33;;;;;;;13.15;9.65;;;0.40;99.90;;;;;;4819720;29;20417;-86
2021/01/26 04:28:58;;;;;;;12.07;9.57;;;0.40;99.90;;;;;;4859867;29;20474;-85
2021/01/26 04:31:24;;;;;;;10.80;9.00;;;0.30;99.90;;;;;;4838337;29;20439;-86
2021/01/26 04:33:50;;;;;;;12.68;9.60;;;0.40;99.90;;;;;;4813869;29;20431;-88
2021/01/26 04:36:21;;;;;;;14.77;9.88;;;0.40;99.90;;;;;;4834434;29;20405;-92
2021/01/26 04:38:47;;;;;;;10.80;8.57;;;0.30;99.90;;;;;;4813551;29;20408;-82
2021/01/26 04:41:24;;;;;;;10.70;8.98;;;0.30;99.90;;;;;;4813670;29;20443;-85
2021/01/26 04:44:26;;;;;;;11.30;9.15;;;0.30;99.90;;;;;;4812787;29;20416;-83
2021/01/26 04:47:01;;;;;;;9.88;8.25;;;0.30;99.90;;;;;;4841470;29;20483;-83
2021/01/26 04:49:31;;;;;;;10.50;8.85;;;0.40;99.90;;;;;;4828958;29;20487;-88
2021/01/26 04:52:00;;;;;;;11.70;8.60;;;0.30;99.90;;;;;;4849436;29;20405;-88
2021/01/26 04:54:53;;;;;;;12.75;8.85;;;0.30;99.90;;;;;;4857689;29;20442;-83
2021/01/26 04:57:23;;;;;;;11.15;9.02;;;0.30;99.90;;;;;;4858698;29;20489;-81
2021/01/26 05:00:05;;;;;;;12.02;9.02;;;0.30;99.90;;;;;;4883270;29;20398;-80
2021/01/26 05:02:57;;;;;;;10.48;8.23;;;0.30;99.90;;;;;;4856042;29;20418;-81
2021/01/26 05:05:23;;;;;;;11.65;8.70;;;0.20;99.90;;;;;;4847712;29;20407;-80
2021/01/26 05:07:54;;;;;;;9.65;8.63;;;0.20;99.90;;;;;;4865443;29;20415;-83
2021/01/26 05:10:27;;;;;;;11.40;8.35;;;0.20;99.90;;;;;;4837351;29;20442;-79
2021/01/26 05:13:02;;;;;;;11.55;8.98;;;0.20;99.90;;;;;;4840486;29;20412;-82
2021/01/26 05:15:30;;;;;;;10.77;8.38;;;0.20;99.90;;;;;;4854080;29;20793;-81
2021/01/26 05:18:20;;;;;;;12.30;9.25;;;0.10;99.90;;;;;;4851633;29;20595;-81
2021/01/26 05:20:50;;;;;;;11.53;8.67;;;0.10;99.90;;;;;;4839414;29;20424;-81
2021/01/26 05:23:18;;;;;;;13.53;9.97;;;0.00;99.90;;;;;;4821149;29;20497;-80
2021/01/26 05:25:44;;;;;;;15.85;12.13;;;0.00;99.90;;;;;;4833564;29;20815;-84
2021/01/26 05:28:09;;;;;;;13.07;9.07;;;0.00;99.90;;;;;;4830191;29;20427;-88
2021/01/26 05:30:37;;;;;;;10.27;8.38;;;-0.10;99.90;;;;;;4870204;29;20428;-85
2021/01/26 05:33:21;;;;;;;10.05;8.20;;;-0.20;99.90;;;;;;4847061;29;20430;-83
2021/01/26 05:35:56;;;;;;;10.50;8.00;;;-0.30;99.90;;;;;;4844434;29;20788;-82
2021/01/26 05:38:22;;;;;;;11.20;8.20;;;-0.30;99.90;;;;;;4845782;29;20404;-82
2021/01/26 05:40:53;;;;;;;11.27;8.90;;;-0.30;99.90;;;;;;4850382;29;20926;-79
2021/01/26 05:43:21;;;;;;;11.07;9.00;;;-0.30;99.90;;;;;;4832665;29;20431;-81
2021/01/26 05:45:50;;;;;;;11.18;8.38;;;-0.30;99.90;;;;;;4848860;29;20402;-80
2021/01/26 05:48:18;;;;;;;10.02;8.50;;;-0.40;99.90;;;;;;4840715;29;20944;-80
2021/01/26 05:50:44;;;;;;;10.15;7.75;;;-0.40;99.90;;;;;;4849334;29;20409;-82
2021/01/26 05:53:21;;;;;;;10.32;8.10;;;-0.50;99.90;;;;;;4849535;29;20409;-83
2021/01/26 05:58:31;;;;;;;13.52;9.20;;;-0.40;99.90;;;;;;4857134;29;20425;-85
2021/01/26 06:00:58;;;;;;;11.73;9.27;;;-0.60;99.90;;;;;;4849194;29;20408;-85
2021/01/26 06:03:24;;;;;;;12.13;8.73;;;-0.60;99.90;;;;;;4847452;29;20475;-83
2021/01/26 06:06:03;;;;;;;12.07;9.53;;;-0.70;99.90;;;;;;4842319;29;20471;-83
2021/01/26 06:08:29;;;;;;;12.18;9.63;;;-0.70;99.90;;;;;;4826476;29;20805;-81
2021/01/26 06:10:55;;;;;;;11.32;8.82;;;-0.70;99.90;;;;;;4840007;29;20471;-81
2021/01/26 06:13:28;;;;;;;10.73;8.60;;;-0.80;99.90;;;;;;4833816;29;20909;-81
2021/01/26 06:16:19;;;;;;;10.90;9.73;;;-0.80;99.90;;;;;;4843179;29;20894;-78
2021/01/26 06:18:58;;;;;;;14.88;10.10;;;-0.80;99.90;;;;;;4863996;29;20426;-82
2021/01/26 06:21:23;;;;;;;11.45;9.45;;;-0.90;99.90;;;;;;4855901;29;20478;-81
2021/01/26 06:23:49;;;;;;;11.70;9.13;;;-0.90;99.90;;;;;;4847760;29;20477;-83
2021/01/26 06:26:15;;;;;;;12.27;9.50;;;-0.90;99.90;;;;;;4831555;29;20928;-82
2021/01/26 06:28:50;;;;;;;13.40;10.27;;;-0.90;99.90;;;;;;4838619;29;20890;-81
2021/01/26 06:31:28;;;;;;;11.13;9.32;;;-0.90;99.90;;;;;;4855033;29;20429;-78
2021/01/26 06:33:55;;;;;;;12.47;10.57;;;-1.00;99.90;;;;;;4834975;29;20398;-80
2021/01/26 06:36:39;;;;;;;13.02;10.38;;;-1.00;99.90;;;;;;4837795;29;20519;-79
2021/01/26 06:39:21;;;;;;;13.75;10.52;;;-1.00;99.90;;;;;;4845537;29;20541;-83
2021/01/26 06:41:58;;;;;;;14.23;10.60;;;-1.00;99.90;;;;;;4839939;29;20489;-84
2021/01/26 06:44:33;;;;;;;12.95;10.13;;;-1.10;99.90;;;;;;4864086;29;20433;-87
2021/01/26 06:47:23;;;;;;;13.63;10.65;;;-1.10;99.90;;;;;;4861053;29;20463;-84
2021/01/26 06:50:10;;;;;;;13.82;11.10;;;-1.10;99.90;;;;;;4861338;29;20470;-84
2021/01/26 06:52:47;;;;;;;14.35;11.05;;;-1.10;99.90;;;;;;4843037;29;21017;-83
2021/01/26 06:55:37;;;;;;;13.38;11.10;;;-1.10;99.90;;;;;;4855585;29;20422;-82
2021/01/26 06:58:21;;;;;;;15.70;11.68;;;-1.10;99.90;;;;;;4846254;29;20417;-84
2021/01/26 07:00:50;;;;;;;16.38;11.35;;;-1.20;99.90;;;;;;4859650;29;20422;-80
2021/01/26 07:03:46;;;;;;;13.52;11.23;;;-1.20;99.90;;;;;;4844502;29;20436;-83
2021/01/26 07:06:21;;;;;;;13.00;10.35;;;-1.20;99.90;;;;;;4857085;29;20406;-78
2021/01/26 07:08:54;;;;;;;13.50;11.02;;;-1.20;99.90;;;;;;4858570;29;20406;-79
2021/01/26 07:11:57;;;;;;;14.27;11.27;;;-1.30;99.90;;;;;;4843209;29;20398;-79
2021/01/26 07:14:53;;;;;;;14.20;10.82;;;-1.30;99.90;;;;;;4852981;29;20404;-81
2021/01/26 07:17:30;;;;;;;13.18;10.80;;;-1.30;99.90;;;;;;4853054;29;20481;-81
2021/01/26 07:20:01;;;;;;;13.32;10.30;;;-1.30;99.90;;;;;;4843190;29;20430;-79
2021/01/26 07:22:52;;;;;;;12.27;10.60;;;-1.30;99.90;;;;;;4853786;29;20456;-81
2021/01/26 07:26:04;;;;;;;14.70;11.70;;;-1.30;99.90;;;;;;4879032;29;20405;-83
2021/01/26 07:28:57;;;;;;;14.43;11.25;;;-1.30;99.90;;;;;;4832727;29;20443;-84
2021/01/26 07:31:36;;;;;;;15.30;10.93;;;-1.30;99.90;;;;;;4834702;29;20406;-86
2021/01/26 07:34:17;;;;;;;14.48;11.10;;;-1.40;99.90;;;;;;4815678;29;20468;-85
2021/01/26 07:36:46;;;;;;;16.15;11.23;;;-1.30;99.90;;;;;;4846985;29;20414;-82
2021/01/26 07:39:26;;;;;;;13.48;11.10;;;-1.30;99.90;;;;;;4884962;29;20581;-84
2021/01/26 07:42:04;;;;;;;12.43;10.35;;;-1.40;99.90;;;;;;4869583;29;20477;-86
2021/01/26 07:44:40;;;;;;;14.02;11.15;;;-1.30;99.90;;;;;;4868647;29;20413;-87
2021/01/26 07:47:24;;;;;;;14.32;12.07;;;-1.30;99.90;;;;;;4869683;29;20408;-84
2021/01/26 07:49:54;;;;;;;14.65;11.45;;;-1.30;99.90;;;;;;4866972;29;20417;-83
2021/01/26 07:52:20;;;;;;;13.77;10.13;;;-1.30;99.90;;;;;;4867179;29;20438;-82
2021/01/26 07:55:11;;;;;;;12.83;11.00;;;-1.30;99.90;;;;;;4883678;29;20428;-85
2021/01/26 07:57:43;;;;;;;12.57;11.00;;;-1.30;99.90;;;;;;4881877;29;21009;-82
2021/01/26 08:00:09;;;;;;;13.77;11.55;;;-1.30;99.90;;;;;;4866146;29;20420;-83
2021/01/26 08:02:37;;;;;;;16.95;10.88;;;-1.30;99.90;;;;;;4832283;29;20798;-84
2021/01/26 08:05:14;;;;;;;12.45;10.75;;;-1.30;99.90;;;;;;4836367;29;20408;-86
2021/01/26 08:07:39;;;;;;;11.27;9.98;;;-1.20;99.90;;;;;;4851538;29;20409;-83
2021/01/26 08:10:06;;;;;;;12.68;10.52;;;-1.20;99.90;;;;;;4857269;29;20411;-84
2021/01/26 08:12:31;;;;;;;15.10;11.00;;;-1.20;99.90;;;;;;4830200;29;20407;-81
2021/01/26 08:15:08;;;;;;;14.70;10.97;;;-1.20;99.90;;;;;;4844887;29;20913;-84
2021/01/26 08:17:35;;;;;;;15.80;11.38;;;-1.20;99.90;;;;;;4841982;29;20540;-84
2021/01/26 08:20:05;;;;;;;14.95;11.70;;;-1.10;99.90;;;;;;4829636;29;20404;-89
2021/01/26 08:22:35;;;;;;;13.38;10.40;;;-1.10;99.90;;;;;;4831293;29;20472;-82
2021/01/26 08:25:06;;;;;;;15.60;11.20;;;-1.10;99.90;;;;;;4841994;29;20508;-84
2021/01/26 08:27:39;;;;;;;11.10;9.90;;;-1.00;99.90;;;;;;4868900;29;20412;-88
2021/01/26 08:30:05;;;;;;;10.80;8.95;;;-1.00;99.90;;;;;;4844311;29;20420;-84
2021/01/26 08:32:34;;;;;;;13.70;9.80;;;-0.90;99.90;;;;;;4845899;29;20418;-86
2021/01/26 08:35:38;;;;;;;9.93;8.25;;;-0.90;99.90;;;;;;4843731;29;20412;-87
2021/01/26 08:38:04;;;;;;;10.52;8.60;;;-0.90;99.90;;;;;;4824369;29;21002;-80
2021/01/26 08:40:29;;;;;;;9.68;8.38;;;-0.90;99.90;;;;;;4831967;29;20467;-84
2021/01/26 08:43:00;;;;;;;9.55;8.30;;;-0.80;99.90;;;;;;4862623;29;20445;-80
2021/01/26 08:45:26;;;;;;;9.68;8.27;;;-0.80;99.90;;;;;;4859584;29;20497;-81
2021/01/26 08:47:54;;;;;;;9.43;7.75;;;-0.70;99.90;;;;;;4860302;29;20707;-82
2021/01/26 08:50:32;;;;;;;12.52;8.57;;;-0.70;99.90;;;;;;4858558;29;20410;-80
2021/01/26 08:53:18;;;;;;;9.97;8.10;;;-0.60;99.90;;;;;;4843211;29;20410;-84
2021/01/26 08:55:44;;;;;;;11.13;8.05;;;-0.60;99.90;;;;;;4842788;29;20414;-84
2021/01/26 08:58:11;;;;;;;11.00;8.73;;;-0.50;99.90;;;;;;4845235;29;20663;-80
2021/01/26 09:00:46;;;;;;;9.68;7.63;;;-0.40;99.90;;;;;;4862420;29;20418;-84
2021/01/26 09:03:28;;;;;;;9.48;7.63;;;-0.40;99.90;;;;;;4863775;29;20841;-84
2021/01/26 09:06:10;;;;;;;9.77;8.10;;;-0.40;99.90;;;;;;4850190;29;20417;-81
2021/01/26 09:08:42;;;;;;;9.52;8.00;;;-0.30;99.90;;;;;;4860390;29;20444;-88
2021/01/26 09:11:19;;;;;;;9.32;7.82;;;-0.30;99.90;;;;;;4887615;29;20404;-86
2021/01/26 09:13:45;;;;;;;10.10;8.68;;;-0.20;99.90;;;;;;4855029;29;20418;-86
2021/01/26 09:16:17;;;;;;;10.57;8.57;;;-0.20;99.90;;;;;;4849344;29;20414;-79
2021/01/26 09:18:43;;;;;;;11.32;7.85;;;-0.10;99.90;;;;;;4848222;29;20410;-84
2021/01/26 09:21:12;;;;;;;10.10;7.78;;;-0.20;99.90;;;;;;4846921;29;20410;-81
2021/01/26 09:23:39;;;;;;;9.43;7.70;;;-0.10;99.90;;;;;;4832576;29;20845;-85
2021/01/26 09:26:16;;;;;;;10.85;8.10;;;-0.10;99.90;;;;;;4852583;29;20404;-80
2021/01/26 09:28:43;;;;;;;11.63;8.60;;;-0.10;99.90;;;;;;4868988;29;20398;-84
2021/01/26 09:31:10;;;;;;;10.53;8.20;;;-0.10;99.90;;;;;;4831929;29;20438;-81
2021/01/26 09:33:35;;;;;;;10.47;8.27;;;0.00;99.90;;;;;;4830468;29;20409;-84
2021/01/26 09:36:01;;;;;;;8.63;7.50;;;0.00;99.90;;;;;;4849761;29;20440;-83
2021/01/26 09:38:32;;;;;;;8.90;7.93;;;0.10;99.90;;;;;;4879729;29;20405;-86
2021/01/26 09:41:29;;;;;;;10.57;8.25;;;0.10;99.90;;;;;;4869488;29;20410;-81
2021/01/26 09:44:06;;;;;;;11.48;7.85;;;0.20;99.90;;;;;;4840264;29;20427;-80
2021/01/26 09:46:35;;;;;;;11.35;8.95;;;0.20;99.90;;;;;;4842202;29;20401;-82
2021/01/26 09:49:13;;;;;;;9.65;7.75;;;0.20;99.90;;;;;;4874681;29;20400;-80
2021/01/26 09:52:03;;;;;;;10.35;7.97;;;0.20;99.90;;;;;;4857400;29;20418;-82
2021/01/26 09:54:34;;;;;;;10.57;8.32;;;0.20;99.90;;;;;;4841920;29;20409;-90
2021/01/26 09:57:00;;;;;;;10.93;9.00;;;0.30;99.90;;;;;;4854631;29;20470;-85
2021/01/26 09:59:26;;;;;;;9.40;7.82;;;0.30;99.90;;;;;;4867206;29;20415;-87
2021/01/26 10:01:51;;;;;;;9.00;7.60;;;0.40;99.90;;;;;;4851232;29;20790;-83
2021/01/26 10:04:18;;;;;;;9.20;7.90;;;0.50;99.90;;;;;;4808473;29;20408;-82
2021/01/26 10:06:44;;;;;;;9.73;8.00;;;0.60;99.90;;;;;;4830911;29;20636;-83
2021/01/26 10:09:17;;;;;;;13.05;8.88;;;0.60;99.90;;;;;;4815161;29;20400;-81
2021/01/26 10:11:43;;;;;;;10.07;7.50;;;0.70;99.90;;;;;;4829546;29;20416;-80
2021/01/26 10:14:20;;;;;;;8.20;6.80;;;0.80;99.90;;;;;;4811811;29;20408;-86
2021/01/26 10:16:50;;;;;;;6.65;5.95;;;0.90;99.90;;;;;;4826157;29;20412;-81
2021/01/26 10:19:29;;;;;;;9.10;5.95;;;1.00;99.90;;;;;;4815691;29;20432;-82
2021/01/26 10:22:14;;;;;;;6.97;6.15;;;1.00;99.90;;;;;;4847933;29;21122;-81
2021/01/26 10:24:39;;;;;;;7.50;6.25;;;1.10;99.90;;;;;;4861918;29;20409;-83
2021/01/26 10:27:07;;;;;;;6.85;5.82;;;1.10;99.90;;;;;;4844696;29;20460;-80
2021/01/26 10:29:57;;;;;;;7.18;6.47;;;1.20;99.90;;;;;;4861438;29;20496;-82
2021/01/26 10:32:40;;;;;;;6.78;6.07;;;1.20;99.90;;;;;;4857405;29;20409;-80
2021/01/26 10:35:34;;;;;;;7.40;6.47;;;1.30;99.90;;;;;;4860581;29;20436;-80
2021/01/26 10:38:41;;;;;;;7.57;6.50;;;1.30;99.90;;;;;;4847190;29;20452;-80
2021/01/26 10:41:08;;;;;;;7.40;6.13;;;1.40;99.90;;;;;;4807888;29;20440;-82
2021/01/26 10:43:34;;;;;;;6.57;5.88;;;1.50;99.90;;;;;;4800067;29;20419;-81
2021/01/26 10:45:59;;;;;;;7.57;6.07;;;1.50;99.90;;;;;;4836649;29;20412;-82
2021/01/26 10:48:32;;;;;;;9.47;6.10;;;1.50;99.90;;;;;;4861020;29;20492;-80
2021/01/26 10:51:13;;;;;;;6.90;5.43;;;1.60;99.90;;;;;;4862009;29;20499;-81
2021/01/26 10:53:46;;;;;;;5.70;5.03;;;1.60;99.90;;;;;;4844240;29;20417;-82
2021/01/26 10:56:12;;;;;;;6.82;5.22;;;1.70;99.90;;;;;;4833998;29;20463;-80
2021/01/26 10:58:40;;;;;;;6.05;5.18;;;1.70;99.90;;;;;;4845506;29;20405;-84
2021/01/26 11:01:06;;;;;;;6.18;4.90;;;1.80;99.90;;;;;;4825770;29;20418;-82
2021/01/26 11:03:32;;;;;;;9.43;6.63;;;1.80;99.90;;;;;;4842041;29;20485;-81
2021/01/26 11:05:57;;;;;;;5.55;4.85;;;1.80;99.90;;;;;;4825145;29;20503;-81
2021/01/26 11:08:23;;;;;;;5.90;5.30;;;1.80;99.90;;;;;;4840570;29;20403;-81
2021/01/26 11:10:49;;;;;;;5.87;5.03;;;1.90;99.90;;;;;;4840793;29;20442;-80
2021/01/26 11:13:14;;;;;;;5.72;5.13;;;1.90;99.90;;;;;;4842451;29;20499;-84
2021/01/26 11:15:40;;;;;;;4.70;4.30;;;1.90;99.90;;;;;;4826017;29;20477;-80
2021/01/26 11:18:06;;;;;;;6.07;5.00;;;2.00;99.90;;;;;;4841524;29;20399;-81
2021/01/26 11:20:33;;;;;;;7.57;5.03;;;1.90;99.90;;;;;;4857509;29;20410;-82
2021/01/26 11:22:59;;;;;;;5.68;5.07;;;1.90;99.90;;;;;;4825948;29;20800;-83
2021/01/26 11:25:27;;;;;;;6.10;5.27;;;2.10;99.90;;;;;;4809261;29;20406;-80
2021/01/26 11:27:53;;;;;;;5.78;5.10;;;2.20;99.90;;;;;;4842600;29;20418;-80
2021/01/26 11:30:20;;;;;;;5.43;4.93;;;2.30;99.90;;;;;;4814069;29;20461;-82
2021/01/26 11:32:46;;;;;;;6.00;5.00;;;2.40;99.90;;;;;;4813819;29;20426;-81
2021/01/26 11:35:15;;;;;;;5.07;4.57;;;2.50;99.90;;;;;;4843172;29;20418;-80
2021/01/26 11:37:44;;;;;;;4.93;4.53;;;2.60;99.90;;;;;;4835728;29;20598;-80
2021/01/26 11:40:10;;;;;;;5.75;5.15;;;2.40;99.90;;;;;;4843536;29;20473;-81
2021/01/26 11:46:51;;;;;;;5.78;4.35;;;2.30;99.90;;;;;;4872559;29;20479;-82
2021/01/26 11:49:25;;;;;;;7.50;5.93;;;2.20;99.90;;;;;;4868647;29;20399;-82
2021/01/26 11:51:59;;;;;;;9.90;7.97;;;2.30;99.90;;;;;;4868834;29;20485;-81
2021/01/26 11:54:42;;;;;;;6.97;5.00;;;2.40;99.90;;;;;;4865182;29;20840;-81
2021/01/26 11:57:40;;;;;;;6.75;5.55;;;2.60;99.90;;;;;;4864415;29;20415;-80
2021/01/26 12:00:21;;;;;;;9.82;6.05;;;2.60;99.90;;;;;;4861936;29;20824;-81
2021/01/26 12:03:09;;;;;;;6.75;5.38;;;2.50;99.90;;;;;;4863306;29;20531;-82
2021/01/26 12:05:42;;;;;;;5.78;4.38;;;2.40;99.90;;;;;;4867340;29;20417;-85
2021/01/26 12:08:13;;;;;;;6.50;4.38;;;2.40;99.90;;;;;;4870806;29;20434;-82
2021/01/26 12:10:41;;;;;;;5.18;4.05;;;2.30;99.90;;;;;;4870388;29;20406;-86
2021/01/26 12:13:10;;;;;;;5.65;4.47;;;2.20;99.90;;;;;;4870394;29;20391;-85
2021/01/26 12:15:42;;;;;;;4.90;4.30;;;2.20;99.90;;;;;;4866571;29;20393;-91
2021/01/26 12:18:09;;;;;;;7.05;5.10;;;2.10;99.90;;;;;;4858024;29;20483;-83
2021/01/26 12:20:36;;;;;;;7.53;4.97;;;2.20;99.90;;;;;;4872353;29;20422;-90
2021/01/26 12:23:03;;;;;;;5.07;4.57;;;2.20;99.90;;;;;;4865563;29;20426;-89
2021/01/26 12:25:33;;;;;;;4.78;4.32;;;2.30;99.90;;;;;;4879469;29;20414;-86
2021/01/26 12:28:04;;;;;;;6.03;4.95;;;2.30;99.90;;;;;;4879891;29;20418;-88
2021/01/26 12:30:34;;;;;;;6.17;5.07;;;2.30;99.90;;;;;;4853360;29;20495;-83
2021/01/26 12:33:02;;;;;;;5.57;4.93;;;2.30;99.90;;;;;;4857168;29;20418;-86
2021/01/26 12:35:35;;;;;;;7.65;6.10;;;2.20;99.90;;;;;;4854798;29;20418;-83
2021/01/26 12:38:01;;;;;;;5.07;4.47;;;2.30;99.90;;;;;;4830771;29;20421;-83
2021/01/26 12:40:30;;;;;;;5.07;4.57;;;2.30;99.90;;;;;;4859927;29;20390;-85
2021/01/26 12:42:57;;;;;;;4.88;4.38;;;2.60;99.90;;;;;;4840557;29;20418;-82
2021/01/26 12:45:26;;;;;;;6.53;5.05;;;2.50;99.90;;;;;;4843055;29;20413;-81
2021/01/26 12:47:56;;;;;;;5.65;5.13;;;2.60;99.90;;;;;;4859821;29;20403;-82
2021/01/26 12:50:29;;;;;;;6.72;5.10;;;2.50;99.90;;;;;;4854826;29;20410;-82
2021/01/26 12:52:56;;;;;;;6.75;5.40;;;2.40;99.90;;;;;;4856003;29;20489;-82
2021/01/26 12:55:23;;;;;;;5.90;5.30;;;2.30;99.90;;;;;;4866763;29;20409;-82
2021/01/26 12:57:50;;;;;;;5.43;4.90;;;2.30;99.90;;;;;;4870484;29;20409;-81
2021/01/26 13:00:17;;;;;;;6.97;5.78;;;2.20;99.90;;;;;;4856109;29;20482;-86
2021/01/26 13:02:43;;;;;;;5.88;5.28;;;2.10;99.90;;;;;;4862429;29;20428;-88
2021/01/26 13:05:10;;;;;;;5.53;4.93;;;2.00;99.90;;;;;;4864058;29;20401;-82
2021/01/26 13:07:37;;;;;;;6.60;5.93;;;2.00;99.90;;;;;;4861394;29;20397;-82
2021/01/26 13:10:05;;;;;;;5.87;5.27;;;2.20;99.90;;;;;;4875921;29;20472;-83
2021/01/26 13:12:31;;;;;;;6.23;5.33;;;2.10;99.90;;;;;;4858483;29;20413;-82
2021/01/26 13:14:57;;;;;;;5.57;5.03;;;2.10;99.90;;;;;;4858282;29;20425;-86
2021/01/26 13:17:23;;;;;;;6.40;4.87;;;2.10;99.90;;;;;;4836955;29;20427;-83